Barney, ND (58008)

11:13 PM CDT on July 29, 2014 (GMT -0500)
Open Plains ND (KNDWYNDM2) Elev 1056 ft | 46.25 °N, 97.12 °W | Change Station

Current weather conditions updated 12 minutes ago

Clear
Clear
58.1 °F
Feels Like 58.1 °F
N
0.0
Wind Variable Wind from NNW

Tomorrow is forecast to be Cooler than today.

Today
High -- | Low -- °F
--% Chance of Precip.
Yesterday
High -- | Low -- °F
Precip. -- in
6:06 AM 9:02 PM
Waxing Crescent, 9% visible
Pressure 30.12 in
Visibility 10.0 miles
Clouds Clear
Dew Point 56 °F
Humidity 91%
Rainfall 0.00 in
Snow Depth Not available.
UV 0 out of 12
Pollen 7.50 out of 12
Air Quality Not available.
Flu Activity Not available.
METAR KBWP 300350Z AUTO 00000KT 10SM CLR 15/10 A3012 RMK AO1

More Conditions Fewer Conditions

Pressure 30.12 in
Visibility 10.0 miles
Clouds Clear
Dew Point 56 °F
Humidity 91%
Rainfall 0.00 in
Snow Depth Not available.
UV 0 out of 12
Pollen 7.50 out of 12
Air Quality Not available.
Flu Activity Not available.
METAR KBWP 300350Z AUTO 00000KT 10SM CLR 15/10 A3012 RMK AO1

More Conditions Fewer Conditions

10-Day Weather Forecast

Almanac

Astronomy

Jul. 29, 2014 Rise Set
Actual Time 6:06 AM CDT 9:02 PM CDT
Civil Twilight 5:30 AM CDT 9:37 PM CDT
Nautical Twilight 4:45 AM CDT 10:22 PM CDT
Astronomical Twilight 3:51 AM CDT 11:15 PM CDT
Moon 8:55 AM CDT (7/29) 10:01 PM CDT (7/29)
Length of Visible Light 16h 06m
Length of Day
14h 55m
Tomorrow will be 2m 26s shorter.
Waxing Crescent, 9% of the Moon is Illuminated
Jul 30
Waxing Crescent
Aug 3
First Quarter
Aug 10
Full
Aug 17
Last Quarter
Aug 25
New

Today's Extremes

State Highs State Lows

Community

WunderPhotos

Upload Photos

1,738,995 photos uploaded!

WunderBlogs® & News

By Dr. Jeff Masters
Director of Meteorology, Weather Underground
By Kari Strenfel
Meteorologist, Weather Underground
By Christopher C. Burt
Weather Historian, Weather Underground
July 29, 2014
July 29, 2014
July 29, 2014

Nearby

Snow Depth

Station Depth Elevation
No new snow has been reported.

Earthquake Activity

City Distance Mag. Time & Date
No recent earthquake activity has been reported nearby.
Minimum magnitude displayed is 2.5.

Coastal Water Temperatures

Place Temperature
No Stations Reporting

Nearby Weather Stations

Station Location Temp. Dew Point Humidity Wind Precip. Elev Updated Type
Open Plains ND, Wyndmere, ND 58.1 °F 56 °F 91% NNW  at  0.0 mph - / hr 1056 ft 11:00 PM CDT Normal
RAWS SHEYENNE ND, Sheldon, ND 57 °F 55 °F 92% North  at  0 mph 0.00 in / hr 1069 ft 10:49 PM CDT MADIS

Show More Stations Show Fewer Stations